Airfield :
LOGIN :

Register | Disclaimer

   EN    FR    IT 

 










Legend :    VFR   Marginal VFR   IFR   Intensive IFR   Very Intensive IFR
Visi :
Ceiling :
>= 8 km
>= 3000ft
5 to 8 km
1000 to 3000 ft
1500m to 5 km
500 to 1000 ft
800 to 1500m
200 to 500 ft
< 800m
< 200 ft
Symbols :   Thunderstorms  Fog  Heavy snow  Heavy precipitations  Wind > 20 kt
SIGMETs :     Misc.  Thunderstorms  Icing  Turbulence  Mountain Waves  Volcanic Ashes







- Airport Elevation : 425 ft
- IATA code : DTM


EDLW - Dortmund

CURRENT METAR :
  • 211520Z 01008KT 340V050 CAVOK 22/08 Q1020

EXPIRED METARs :
  • 211450Z 02007KT 340V050 CAVOK 21/09 Q1020
  • 211420Z 04004KT 340V080 CAVOK 22/10 Q1020
  • 211350Z 04005KT 360V080 CAVOK 21/09 Q1021
  • 211320Z 03005KT 350V070 CAVOK 22/09 Q1021
  • 211250Z 03005KT 320V090 CAVOK 21/09 Q1021
  • 211220Z 03006KT 010V070 CAVOK 20/09 Q1021

TAF TAF EDLW
Valid from the 21 at 12:00 until the 22 at 12:00 UTC


211100Z 2112/2212 01006KT 9000 NSC
BECMG 2118/2121 09005KT
BECMG 2203/2206 16007KT
BECMG 2209/2212 22010KT
No reported NOTAMs for that airfield.



MET'MAP, your aeronautical weather chart ! - Copyright ORBIFLY December 2007 - Disclaimer

ORBIFLY MET'MAP TEAM :

Programming & Development : Alexandra Zaïnal
Concept & Development : Baudouin d'Aumeries
Co-Development & Prog : Marc-Olivier Méhu
Technical & hardware support : Manuel Goepfert

Contact : metmap@orbifly.com




SOURCES & CREDITS :

   NOAA